sensor_id;sensor_type;location;lat;lon;timestamp;P1;durP1;ratioP1;P2;durP2;ratioP2
39776;SDS011;25453;48.162;14.510;2023-09-19T00:00:41;0.40;;;0.40;;
39776;SDS011;25453;48.162;14.510;2023-09-19T00:03:09;0.45;;;0.30;;
39776;SDS011;25453;48.162;14.510;2023-09-19T00:05:39;0.70;;;0.32;;
39776;SDS011;25453;48.162;14.510;2023-09-19T00:08:11;1.20;;;0.30;;
39776;SDS011;25453;48.162;14.510;2023-09-19T00:10:42;0.38;;;0.20;;
39776;SDS011;25453;48.162;14.510;2023-09-19T00:13:10;0.30;;;0.20;;
39776;SDS011;25453;48.162;14.510;2023-09-19T00:15:43;0.38;;;0.20;;
39776;SDS011;25453;48.162;14.510;2023-09-19T00:18:18;0.28;;;0.10;;
39776;SDS011;25453;48.162;14.510;2023-09-19T00:20:49;0.40;;;0.22;;
39776;SDS011;25453;48.162;14.510;2023-09-19T00:23:19;0.10;;;0.10;;
39776;SDS011;25453;48.162;14.510;2023-09-19T00:25:47;0.73;;;0.30;;
39776;SDS011;25453;48.162;14.510;2023-09-19T00:28:15;0.88;;;0.20;;
39776;SDS011;25453;48.162;14.510;2023-09-19T00:30:43;0.57;;;0.20;;
39776;SDS011;25453;48.162;14.510;2023-09-19T00:33:11;0.95;;;0.30;;
39776;SDS011;25453;48.162;14.510;2023-09-19T00:35:53;0.28;;;0.20;;
39776;SDS011;25453;48.162;14.510;2023-09-19T00:38:21;0.20;;;0.15;;
39776;SDS011;25453;48.162;14.510;2023-09-19T00:40:54;1.17;;;0.28;;
39776;SDS011;25453;48.162;14.510;2023-09-19T00:43:26;0.80;;;0.25;;
39776;SDS011;25453;48.162;14.510;2023-09-19T00:45:55;0.82;;;0.30;;
39776;SDS011;25453;48.162;14.510;2023-09-19T00:48:24;0.20;;;0.20;;
39776;SDS011;25453;48.162;14.510;2023-09-19T00:50:54;1.10;;;0.30;;
39776;SDS011;25453;48.162;14.510;2023-09-19T00:53:23;1.05;;;0.30;;
39776;SDS011;25453;48.162;14.510;2023-09-19T00:55:52;0.73;;;0.40;;
39776;SDS011;25453;48.162;14.510;2023-09-19T00:58:19;0.28;;;0.28;;
39776;SDS011;25453;48.162;14.510;2023-09-19T01:00:50;1.35;;;0.30;;
39776;SDS011;25453;48.162;14.510;2023-09-19T01:03:19;0.20;;;0.20;;
39776;SDS011;25453;48.162;14.510;2023-09-19T01:05:48;0.30;;;0.20;;
39776;SDS011;25453;48.162;14.510;2023-09-19T01:08:15;0.30;;;0.20;;
39776;SDS011;25453;48.162;14.510;2023-09-19T01:10:44;0.52;;;0.20;;
39776;SDS011;25453;48.162;14.510;2023-09-19T01:13:22;0.68;;;0.30;;
39776;SDS011;25453;48.162;14.510;2023-09-19T01:16:10;0.70;;;0.40;;
39776;SDS011;25453;48.162;14.510;2023-09-19T01:21:53;1.17;;;0.43;;
39776;SDS011;25453;48.162;14.510;2023-09-19T01:24:44;0.50;;;0.30;;
39776;SDS011;25453;48.162;14.510;2023-09-19T01:27:34;1.52;;;0.30;;
39776;SDS011;25453;48.162;14.510;2023-09-19T01:30:27;0.60;;;0.40;;
39776;SDS011;25453;48.162;14.510;2023-09-19T01:32:59;0.50;;;0.30;;
39776;SDS011;25453;48.162;14.510;2023-09-19T01:35:27;0.68;;;0.32;;
39776;SDS011;25453;48.162;14.510;2023-09-19T01:37:54;0.40;;;0.30;;
39776;SDS011;25453;48.162;14.510;2023-09-19T01:40:21;0.40;;;0.20;;
39776;SDS011;25453;48.162;14.510;2023-09-19T01:48:46;0.52;;;0.32;;
39776;SDS011;25453;48.162;14.510;2023-09-19T01:51:26;1.08;;;0.35;;
39776;SDS011;25453;48.162;14.510;2023-09-19T01:54:13;6.40;;;0.47;;
39776;SDS011;25453;48.162;14.510;2023-09-19T01:56:49;0.50;;;0.30;;
39776;SDS011;25453;48.162;14.510;2023-09-19T01:59:24;0.43;;;0.25;;
39776;SDS011;25453;48.162;14.510;2023-09-19T02:01:54;0.45;;;0.40;;
39776;SDS011;25453;48.162;14.510;2023-09-19T02:04:23;0.60;;;0.40;;
39776;SDS011;25453;48.162;14.510;2023-09-19T02:06:50;0.52;;;0.35;;
39776;SDS011;25453;48.162;14.510;2023-09-19T02:09:18;0.35;;;0.30;;
39776;SDS011;25453;48.162;14.510;2023-09-19T02:11:45;0.55;;;0.30;;
39776;SDS011;25453;48.162;14.510;2023-09-19T02:14:13;0.98;;;0.50;;
39776;SDS011;25453;48.162;14.510;2023-09-19T02:16:40;0.95;;;0.40;;
39776;SDS011;25453;48.162;14.510;2023-09-19T02:19:08;3.65;;;0.60;;
39776;SDS011;25453;48.162;14.510;2023-09-19T02:21:36;0.38;;;0.38;;
39776;SDS011;25453;48.162;14.510;2023-09-19T02:24:03;0.43;;;0.40;;
39776;SDS011;25453;48.162;14.510;2023-09-19T02:26:30;1.00;;;0.40;;
39776;SDS011;25453;48.162;14.510;2023-09-19T02:28:57;0.80;;;0.35;;
39776;SDS011;25453;48.162;14.510;2023-09-19T02:31:25;1.00;;;0.50;;
39776;SDS011;25453;48.162;14.510;2023-09-19T02:33:56;0.77;;;0.30;;
39776;SDS011;25453;48.162;14.510;2023-09-19T02:36:23;0.70;;;0.50;;
39776;SDS011;25453;48.162;14.510;2023-09-19T02:38:50;1.05;;;0.40;;
39776;SDS011;25453;48.162;14.510;2023-09-19T02:41:17;0.77;;;0.40;;
39776;SDS011;25453;48.162;14.510;2023-09-19T02:43:45;0.20;;;0.20;;
39776;SDS011;25453;48.162;14.510;2023-09-19T02:46:13;0.38;;;0.30;;
39776;SDS011;25453;48.162;14.510;2023-09-19T02:48:40;0.40;;;0.30;;
39776;SDS011;25453;48.162;14.510;2023-09-19T02:51:08;1.65;;;0.55;;
39776;SDS011;25453;48.162;14.510;2023-09-19T02:53:35;1.17;;;0.40;;
39776;SDS011;25453;48.162;14.510;2023-09-19T02:56:03;0.45;;;0.32;;
39776;SDS011;25453;48.162;14.510;2023-09-19T02:58:31;0.30;;;0.20;;
39776;SDS011;25453;48.162;14.510;2023-09-19T03:01:08;0.40;;;0.20;;
39776;SDS011;25453;48.162;14.510;2023-09-19T03:03:38;2.10;;;0.40;;
39776;SDS011;25453;48.162;14.510;2023-09-19T03:06:06;1.02;;;0.50;;
39776;SDS011;25453;48.162;14.510;2023-09-19T03:08:35;0.30;;;0.30;;
39776;SDS011;25453;48.162;14.510;2023-09-19T03:11:03;0.80;;;0.40;;
39776;SDS011;25453;48.162;14.510;2023-09-19T03:13:32;1.38;;;0.57;;
39776;SDS011;25453;48.162;14.510;2023-09-19T03:15:59;0.68;;;0.40;;
39776;SDS011;25453;48.162;14.510;2023-09-19T03:18:26;0.32;;;0.32;;
39776;SDS011;25453;48.162;14.510;2023-09-19T03:20:54;0.82;;;0.30;;
39776;SDS011;25453;48.162;14.510;2023-09-19T03:23:26;0.30;;;0.20;;
39776;SDS011;25453;48.162;14.510;2023-09-19T03:25:54;1.35;;;0.30;;
39776;SDS011;25453;48.162;14.510;2023-09-19T03:28:22;0.90;;;0.35;;
39776;SDS011;25453;48.162;14.510;2023-09-19T03:31:11;1.67;;;0.47;;
39776;SDS011;25453;48.162;14.510;2023-09-19T03:33:38;0.20;;;0.20;;
39776;SDS011;25453;48.162;14.510;2023-09-19T03:36:06;0.73;;;0.32;;
39776;SDS011;25453;48.162;14.510;2023-09-19T03:38:33;0.28;;;0.28;;
39776;SDS011;25453;48.162;14.510;2023-09-19T03:41:02;0.20;;;0.20;;
39776;SDS011;25453;48.162;14.510;2023-09-19T03:43:29;0.63;;;0.22;;
39776;SDS011;25453;48.162;14.510;2023-09-19T03:46:01;0.38;;;0.38;;
39776;SDS011;25453;48.162;14.510;2023-09-19T03:48:32;0.90;;;0.30;;
39776;SDS011;25453;48.162;14.510;2023-09-19T03:51:00;0.20;;;0.20;;
39776;SDS011;25453;48.162;14.510;2023-09-19T03:53:27;0.90;;;0.40;;
39776;SDS011;25453;48.162;14.510;2023-09-19T03:55:54;1.17;;;0.40;;
39776;SDS011;25453;48.162;14.510;2023-09-19T03:58:21;0.28;;;0.20;;
39776;SDS011;25453;48.162;14.510;2023-09-19T04:00:48;0.60;;;0.30;;
39776;SDS011;25453;48.162;14.510;2023-09-19T04:03:16;0.40;;;0.30;;
39776;SDS011;25453;48.162;14.510;2023-09-19T04:05:47;0.40;;;0.30;;
39776;SDS011;25453;48.162;14.510;2023-09-19T04:08:14;1.10;;;0.40;;
39776;SDS011;25453;48.162;14.510;2023-09-19T04:10:42;0.80;;;0.40;;
39776;SDS011;25453;48.162;14.510;2023-09-19T04:13:13;1.15;;;0.50;;
39776;SDS011;25453;48.162;14.510;2023-09-19T04:15:40;1.23;;;0.50;;
39776;SDS011;25453;48.162;14.510;2023-09-19T04:18:07;0.73;;;0.30;;
39776;SDS011;25453;48.162;14.510;2023-09-19T04:20:35;0.93;;;0.32;;
39776;SDS011;25453;48.162;14.510;2023-09-19T04:23:03;1.70;;;0.57;;
39776;SDS011;25453;48.162;14.510;2023-09-19T04:25:31;0.60;;;0.40;;
39776;SDS011;25453;48.162;14.510;2023-09-19T04:27:59;0.75;;;0.32;;
39776;SDS011;25453;48.162;14.510;2023-09-19T04:30:26;1.23;;;0.32;;
39776;SDS011;25453;48.162;14.510;2023-09-19T04:32:53;0.40;;;0.30;;
39776;SDS011;25453;48.162;14.510;2023-09-19T04:35:20;1.02;;;0.52;;
39776;SDS011;25453;48.162;14.510;2023-09-19T04:37:47;0.95;;;0.60;;
39776;SDS011;25453;48.162;14.510;2023-09-19T04:40:17;0.68;;;0.30;;
39776;SDS011;25453;48.162;14.510;2023-09-19T04:42:52;0.73;;;0.40;;
39776;SDS011;25453;48.162;14.510;2023-09-19T04:45:23;0.73;;;0.40;;
39776;SDS011;25453;48.162;14.510;2023-09-19T04:47:50;0.65;;;0.38;;
39776;SDS011;25453;48.162;14.510;2023-09-19T04:50:18;0.30;;;0.30;;
39776;SDS011;25453;48.162;14.510;2023-09-19T04:52:50;0.60;;;0.40;;
39776;SDS011;25453;48.162;14.510;2023-09-19T04:55:17;1.55;;;0.50;;
39776;SDS011;25453;48.162;14.510;2023-09-19T04:57:49;1.02;;;0.40;;
39776;SDS011;25453;48.162;14.510;2023-09-19T05:00:18;1.38;;;0.40;;
39776;SDS011;25453;48.162;14.510;2023-09-19T05:02:51;0.30;;;0.30;;
39776;SDS011;25453;48.162;14.510;2023-09-19T05:05:19;0.85;;;0.40;;
39776;SDS011;25453;48.162;14.510;2023-09-19T05:07:46;0.35;;;0.20;;
39776;SDS011;25453;48.162;14.510;2023-09-19T05:10:14;2.00;;;0.55;;
39776;SDS011;25453;48.162;14.510;2023-09-19T05:12:43;0.60;;;0.30;;
39776;SDS011;25453;48.162;14.510;2023-09-19T05:15:13;1.92;;;0.43;;
39776;SDS011;25453;48.162;14.510;2023-09-19T05:17:49;0.50;;;0.30;;
39776;SDS011;25453;48.162;14.510;2023-09-19T05:20:22;1.30;;;0.45;;
39776;SDS011;25453;48.162;14.510;2023-09-19T05:23:05;2.78;;;0.38;;
39776;SDS011;25453;48.162;14.510;2023-09-19T05:25:39;3.30;;;0.40;;
39776;SDS011;25453;48.162;14.510;2023-09-19T05:28:07;1.30;;;0.40;;
39776;SDS011;25453;48.162;14.510;2023-09-19T05:30:38;1.40;;;0.40;;
39776;SDS011;25453;48.162;14.510;2023-09-19T05:33:06;1.00;;;0.55;;
39776;SDS011;25453;48.162;14.510;2023-09-19T05:35:34;0.93;;;0.40;;
39776;SDS011;25453;48.162;14.510;2023-09-19T05:38:06;0.85;;;0.40;;
39776;SDS011;25453;48.162;14.510;2023-09-19T05:40:35;0.95;;;0.35;;
39776;SDS011;25453;48.162;14.510;2023-09-19T05:43:04;1.25;;;0.57;;
39776;SDS011;25453;48.162;14.510;2023-09-19T05:45:32;0.75;;;0.40;;
39776;SDS011;25453;48.162;14.510;2023-09-19T05:48:07;1.85;;;0.50;;
39776;SDS011;25453;48.162;14.510;2023-09-19T05:50:40;0.60;;;0.32;;
39776;SDS011;25453;48.162;14.510;2023-09-19T05:53:08;1.02;;;0.40;;
39776;SDS011;25453;48.162;14.510;2023-09-19T05:55:39;3.83;;;0.40;;
39776;SDS011;25453;48.162;14.510;2023-09-19T05:58:06;1.23;;;0.50;;
39776;SDS011;25453;48.162;14.510;2023-09-19T06:00:35;1.33;;;0.50;;
39776;SDS011;25453;48.162;14.510;2023-09-19T06:03:05;0.82;;;0.40;;
39776;SDS011;25453;48.162;14.510;2023-09-19T06:05:32;0.50;;;0.50;;
39776;SDS011;25453;48.162;14.510;2023-09-19T06:07:59;0.73;;;0.38;;
39776;SDS011;25453;48.162;14.510;2023-09-19T06:10:27;0.60;;;0.30;;
39776;SDS011;25453;48.162;14.510;2023-09-19T06:12:55;1.50;;;0.50;;
39776;SDS011;25453;48.162;14.510;2023-09-19T06:15:25;0.93;;;0.45;;
39776;SDS011;25453;48.162;14.510;2023-09-19T06:17:53;0.77;;;0.40;;
39776;SDS011;25453;48.162;14.510;2023-09-19T06:20:26;1.25;;;0.60;;
39776;SDS011;25453;48.162;14.510;2023-09-19T06:22:53;1.95;;;0.40;;
39776;SDS011;25453;48.162;14.510;2023-09-19T06:25:21;1.65;;;0.60;;
39776;SDS011;25453;48.162;14.510;2023-09-19T06:27:50;2.45;;;0.70;;
39776;SDS011;25453;48.162;14.510;2023-09-19T06:30:23;0.73;;;0.38;;
39776;SDS011;25453;48.162;14.510;2023-09-19T06:32:58;1.52;;;0.70;;
39776;SDS011;25453;48.162;14.510;2023-09-19T06:37:56;1.00;;;0.40;;
39776;SDS011;25453;48.162;14.510;2023-09-19T06:40:25;1.10;;;0.63;;
39776;SDS011;25453;48.162;14.510;2023-09-19T06:42:54;1.20;;;0.63;;
39776;SDS011;25453;48.162;14.510;2023-09-19T06:45:23;0.60;;;0.40;;
39776;SDS011;25453;48.162;14.510;2023-09-19T06:47:54;0.82;;;0.50;;
39776;SDS011;25453;48.162;14.510;2023-09-19T06:50:25;1.20;;;0.40;;
39776;SDS011;25453;48.162;14.510;2023-09-19T06:52:55;0.98;;;0.65;;
39776;SDS011;25453;48.162;14.510;2023-09-19T06:55:25;0.35;;;0.20;;
39776;SDS011;25453;48.162;14.510;2023-09-19T06:57:55;0.88;;;0.50;;
39776;SDS011;25453;48.162;14.510;2023-09-19T07:00:22;0.30;;;0.30;;
39776;SDS011;25453;48.162;14.510;2023-09-19T07:03:02;0.73;;;0.38;;
39776;SDS011;25453;48.162;14.510;2023-09-19T07:05:32;0.52;;;0.30;;
39776;SDS011;25453;48.162;14.510;2023-09-19T07:08:09;0.60;;;0.35;;
39776;SDS011;25453;48.162;14.510;2023-09-19T07:10:40;1.27;;;0.52;;
39776;SDS011;25453;48.162;14.510;2023-09-19T07:13:08;0.45;;;0.30;;
39776;SDS011;25453;48.162;14.510;2023-09-19T07:15:37;0.52;;;0.40;;
39776;SDS011;25453;48.162;14.510;2023-09-19T07:18:08;1.05;;;0.57;;
39776;SDS011;25453;48.162;14.510;2023-09-19T07:20:38;0.70;;;0.40;;
39776;SDS011;25453;48.162;14.510;2023-09-19T07:23:05;0.50;;;0.40;;
39776;SDS011;25453;48.162;14.510;2023-09-19T07:25:32;0.57;;;0.30;;
39776;SDS011;25453;48.162;14.510;2023-09-19T07:28:02;0.68;;;0.40;;
39776;SDS011;25453;48.162;14.510;2023-09-19T07:30:29;0.70;;;0.40;;
39776;SDS011;25453;48.162;14.510;2023-09-19T07:32:57;0.40;;;0.30;;
39776;SDS011;25453;48.162;14.510;2023-09-19T07:35:24;1.00;;;0.50;;
39776;SDS011;25453;48.162;14.510;2023-09-19T07:37:52;0.55;;;0.30;;
39776;SDS011;25453;48.162;14.510;2023-09-19T07:40:19;0.50;;;0.50;;
39776;SDS011;25453;48.162;14.510;2023-09-19T07:42:47;1.13;;;0.50;;
39776;SDS011;25453;48.162;14.510;2023-09-19T07:45:15;0.80;;;0.45;;
39776;SDS011;25453;48.162;14.510;2023-09-19T07:50:14;0.90;;;0.40;;
39776;SDS011;25453;48.162;14.510;2023-09-19T07:52:43;0.40;;;0.30;;
39776;SDS011;25453;48.162;14.510;2023-09-19T07:55:11;0.22;;;0.20;;
39776;SDS011;25453;48.162;14.510;2023-09-19T07:57:43;0.77;;;0.40;;
39776;SDS011;25453;48.162;14.510;2023-09-19T08:00:10;0.30;;;0.20;;
39776;SDS011;25453;48.162;14.510;2023-09-19T08:02:38;0.50;;;0.30;;
39776;SDS011;25453;48.162;14.510;2023-09-19T08:05:07;1.00;;;0.30;;
39776;SDS011;25453;48.162;14.510;2023-09-19T08:07:39;0.47;;;0.30;;
39776;SDS011;25453;48.162;14.510;2023-09-19T08:10:07;0.38;;;0.30;;
39776;SDS011;25453;48.162;14.510;2023-09-19T08:12:39;0.20;;;0.20;;
39776;SDS011;25453;48.162;14.510;2023-09-19T08:15:17;0.50;;;0.30;;
39776;SDS011;25453;48.162;14.510;2023-09-19T08:17:46;0.45;;;0.28;;
39776;SDS011;25453;48.162;14.510;2023-09-19T08:20:15;0.40;;;0.30;;
39776;SDS011;25453;48.162;14.510;2023-09-19T08:22:47;0.93;;;0.30;;
39776;SDS011;25453;48.162;14.510;2023-09-19T08:25:19;0.43;;;0.30;;
39776;SDS011;25453;48.162;14.510;2023-09-19T08:27:47;1.33;;;0.40;;
39776;SDS011;25453;48.162;14.510;2023-09-19T08:30:16;0.40;;;0.40;;
39776;SDS011;25453;48.162;14.510;2023-09-19T08:32:51;0.65;;;0.30;;
39776;SDS011;25453;48.162;14.510;2023-09-19T08:35:25;0.47;;;0.30;;
39776;SDS011;25453;48.162;14.510;2023-09-19T08:37:53;0.90;;;0.50;;
39776;SDS011;25453;48.162;14.510;2023-09-19T08:40:22;0.30;;;0.30;;
39776;SDS011;25453;48.162;14.510;2023-09-19T08:42:50;0.40;;;0.22;;
39776;SDS011;25453;48.162;14.510;2023-09-19T08:45:20;0.75;;;0.30;;
39776;SDS011;25453;48.162;14.510;2023-09-19T08:50:56;0.52;;;0.30;;
39776;SDS011;25453;48.162;14.510;2023-09-19T08:54:12;0.38;;;0.30;;
39776;SDS011;25453;48.162;14.510;2023-09-19T08:56:25;0.30;;;0.30;;
39776;SDS011;25453;48.162;14.510;2023-09-19T08:58:57;0.40;;;0.30;;
39776;SDS011;25453;48.162;14.510;2023-09-19T09:01:29;1.55;;;0.40;;
39776;SDS011;25453;48.162;14.510;2023-09-19T09:03:59;0.63;;;0.38;;
39776;SDS011;25453;48.162;14.510;2023-09-19T09:06:31;1.20;;;0.40;;
39776;SDS011;25453;48.162;14.510;2023-09-19T09:09:00;1.60;;;0.57;;
39776;SDS011;25453;48.162;14.510;2023-09-19T09:11:28;1.52;;;0.88;;
39776;SDS011;25453;48.162;14.510;2023-09-19T09:13:56;0.77;;;0.40;;
39776;SDS011;25453;48.162;14.510;2023-09-19T09:16:24;0.60;;;0.30;;
39776;SDS011;25453;48.162;14.510;2023-09-19T09:18:53;0.40;;;0.40;;
39776;SDS011;25453;48.162;14.510;2023-09-19T09:21:22;0.30;;;0.30;;
39776;SDS011;25453;48.162;14.510;2023-09-19T09:23:52;0.68;;;0.40;;
39776;SDS011;25453;48.162;14.510;2023-09-19T09:29:05;0.47;;;0.35;;
39776;SDS011;25453;48.162;14.510;2023-09-19T09:31:33;3.05;;;0.40;;
39776;SDS011;25453;48.162;14.510;2023-09-19T09:34:00;1.98;;;0.50;;
39776;SDS011;25453;48.162;14.510;2023-09-19T09:36:38;1.20;;;0.50;;
39776;SDS011;25453;48.162;14.510;2023-09-19T09:39:08;0.85;;;0.55;;
39776;SDS011;25453;48.162;14.510;2023-09-19T09:41:45;1.80;;;0.65;;
39776;SDS011;25453;48.162;14.510;2023-09-19T09:44:13;1.58;;;0.60;;
39776;SDS011;25453;48.162;14.510;2023-09-19T09:46:45;0.63;;;0.40;;
39776;SDS011;25453;48.162;14.510;2023-09-19T09:49:26;1.98;;;0.70;;
39776;SDS011;25453;48.162;14.510;2023-09-19T09:52:04;1.38;;;0.60;;
39776;SDS011;25453;48.162;14.510;2023-09-19T09:54:37;1.67;;;0.70;;
39776;SDS011;25453;48.162;14.510;2023-09-19T09:57:08;1.02;;;0.60;;
39776;SDS011;25453;48.162;14.510;2023-09-19T10:02:26;0.90;;;0.52;;
39776;SDS011;25453;48.162;14.510;2023-09-19T10:05:00;2.10;;;0.85;;
39776;SDS011;25453;48.162;14.510;2023-09-19T10:08:10;1.48;;;0.73;;
39776;SDS011;25453;48.162;14.510;2023-09-19T10:10:40;1.25;;;0.63;;
39776;SDS011;25453;48.162;14.510;2023-09-19T10:13:08;2.13;;;0.80;;
39776;SDS011;25453;48.162;14.510;2023-09-19T10:15:43;1.23;;;0.70;;
39776;SDS011;25453;48.162;14.510;2023-09-19T10:18:25;1.95;;;0.90;;
39776;SDS011;25453;48.162;14.510;2023-09-19T10:20:54;1.85;;;0.75;;
39776;SDS011;25453;48.162;14.510;2023-09-19T10:23:23;0.88;;;0.50;;
39776;SDS011;25453;48.162;14.510;2023-09-19T10:25:52;2.03;;;0.77;;
39776;SDS011;25453;48.162;14.510;2023-09-19T10:28:21;1.60;;;0.60;;
39776;SDS011;25453;48.162;14.510;2023-09-19T10:30:52;1.10;;;0.57;;
39776;SDS011;25453;48.162;14.510;2023-09-19T10:33:23;1.65;;;0.60;;
39776;SDS011;25453;48.162;14.510;2023-09-19T10:35:56;2.60;;;0.45;;
39776;SDS011;25453;48.162;14.510;2023-09-19T10:38:26;0.80;;;0.50;;
39776;SDS011;25453;48.162;14.510;2023-09-19T10:40:57;2.28;;;0.70;;
39776;SDS011;25453;48.162;14.510;2023-09-19T10:43:32;1.33;;;0.60;;
39776;SDS011;25453;48.162;14.510;2023-09-19T10:46:07;2.00;;;0.70;;
39776;SDS011;25453;48.162;14.510;2023-09-19T10:48:37;1.85;;;0.60;;
39776;SDS011;25453;48.162;14.510;2023-09-19T10:51:16;1.23;;;0.80;;
39776;SDS011;25453;48.162;14.510;2023-09-19T10:56:24;0.70;;;0.40;;
39776;SDS011;25453;48.162;14.510;2023-09-19T10:59:09;1.02;;;0.70;;
39776;SDS011;25453;48.162;14.510;2023-09-19T11:01:47;2.03;;;1.00;;
39776;SDS011;25453;48.162;14.510;2023-09-19T11:04:32;0.85;;;0.57;;
39776;SDS011;25453;48.162;14.510;2023-09-19T11:07:03;0.70;;;0.60;;
39776;SDS011;25453;48.162;14.510;2023-09-19T11:16:02;0.93;;;0.50;;
39776;SDS011;25453;48.162;14.510;2023-09-19T11:26:49;0.80;;;0.40;;
39776;SDS011;25453;48.162;14.510;2023-09-19T11:29:29;0.75;;;0.50;;
39776;SDS011;25453;48.162;14.510;2023-09-19T11:31:57;1.00;;;0.50;;
39776;SDS011;25453;48.162;14.510;2023-09-19T11:42:42;0.75;;;0.43;;
39776;SDS011;25453;48.162;14.510;2023-09-19T11:48:24;1.00;;;0.52;;
39776;SDS011;25453;48.162;14.510;2023-09-19T11:50:53;1.85;;;0.70;;
39776;SDS011;25453;48.162;14.510;2023-09-19T11:53:21;1.98;;;0.52;;
39776;SDS011;25453;48.162;14.510;2023-09-19T11:55:50;1.05;;;0.60;;
39776;SDS011;25453;48.162;14.510;2023-09-19T11:58:19;1.08;;;0.60;;
39776;SDS011;25453;48.162;14.510;2023-09-19T12:00:47;1.52;;;0.85;;
39776;SDS011;25453;48.162;14.510;2023-09-19T12:03:27;1.65;;;0.85;;
39776;SDS011;25453;48.162;14.510;2023-09-19T12:05:56;1.77;;;0.85;;
39776;SDS011;25453;48.162;14.510;2023-09-19T12:08:25;2.05;;;0.65;;
39776;SDS011;25453;48.162;14.510;2023-09-19T12:10:53;1.58;;;0.70;;
39776;SDS011;25453;48.162;14.510;2023-09-19T12:13:24;1.33;;;0.60;;
39776;SDS011;25453;48.162;14.510;2023-09-19T12:15:52;1.30;;;0.65;;
39776;SDS011;25453;48.162;14.510;2023-09-19T12:18:26;0.75;;;0.50;;
39776;SDS011;25453;48.162;14.510;2023-09-19T12:20:57;0.90;;;0.50;;
39776;SDS011;25453;48.162;14.510;2023-09-19T12:23:24;0.52;;;0.40;;
39776;SDS011;25453;48.162;14.510;2023-09-19T12:25:52;1.17;;;0.60;;
39776;SDS011;25453;48.162;14.510;2023-09-19T12:28:27;2.50;;;0.98;;
39776;SDS011;25453;48.162;14.510;2023-09-19T12:31:07;2.33;;;0.57;;
39776;SDS011;25453;48.162;14.510;2023-09-19T12:33:34;2.10;;;0.75;;
39776;SDS011;25453;48.162;14.510;2023-09-19T12:36:19;3.03;;;0.80;;
39776;SDS011;25453;48.162;14.510;2023-09-19T12:38:57;2.83;;;0.73;;
39776;SDS011;25453;48.162;14.510;2023-09-19T12:41:34;1.17;;;0.70;;
39776;SDS011;25453;48.162;14.510;2023-09-19T12:44:04;6.90;;;1.00;;
39776;SDS011;25453;48.162;14.510;2023-09-19T12:46:36;2.63;;;0.85;;
39776;SDS011;25453;48.162;14.510;2023-09-19T12:49:19;1.60;;;0.82;;
39776;SDS011;25453;48.162;14.510;2023-09-19T12:51:47;2.15;;;0.80;;
39776;SDS011;25453;48.162;14.510;2023-09-19T12:54:15;1.23;;;0.47;;
39776;SDS011;25453;48.162;14.510;2023-09-19T12:56:44;1.05;;;0.63;;
39776;SDS011;25453;48.162;14.510;2023-09-19T12:59:15;1.17;;;0.75;;
39776;SDS011;25453;48.162;14.510;2023-09-19T13:01:43;1.55;;;0.60;;
39776;SDS011;25453;48.162;14.510;2023-09-19T13:04:17;1.23;;;0.60;;
39776;SDS011;25453;48.162;14.510;2023-09-19T13:06:50;1.20;;;0.70;;
39776;SDS011;25453;48.162;14.510;2023-09-19T13:09:19;0.65;;;0.40;;
39776;SDS011;25453;48.162;14.510;2023-09-19T13:11:47;1.75;;;0.73;;
39776;SDS011;25453;48.162;14.510;2023-09-19T13:14:18;0.90;;;0.45;;
39776;SDS011;25453;48.162;14.510;2023-09-19T13:17:07;0.60;;;0.50;;
39776;SDS011;25453;48.162;14.510;2023-09-19T13:19:46;1.05;;;0.50;;
39776;SDS011;25453;48.162;14.510;2023-09-19T13:25:18;2.55;;;0.63;;
39776;SDS011;25453;48.162;14.510;2023-09-19T13:27:52;2.22;;;0.40;;
39776;SDS011;25453;48.162;14.510;2023-09-19T13:30:23;0.40;;;0.40;;
39776;SDS011;25453;48.162;14.510;2023-09-19T13:33:14;0.98;;;0.52;;
39776;SDS011;25453;48.162;14.510;2023-09-19T13:35:47;1.25;;;0.40;;
39776;SDS011;25453;48.162;14.510;2023-09-19T13:38:14;0.40;;;0.40;;
39776;SDS011;25453;48.162;14.510;2023-09-19T13:40:42;1.15;;;0.50;;
39776;SDS011;25453;48.162;14.510;2023-09-19T13:43:09;0.57;;;0.40;;
39776;SDS011;25453;48.162;14.510;2023-09-19T13:45:38;0.73;;;0.40;;
39776;SDS011;25453;48.162;14.510;2023-09-19T13:48:08;0.77;;;0.57;;
39776;SDS011;25453;48.162;14.510;2023-09-19T13:50:38;0.55;;;0.40;;
39776;SDS011;25453;48.162;14.510;2023-09-19T13:53:09;1.27;;;0.50;;
39776;SDS011;25453;48.162;14.510;2023-09-19T13:55:36;0.82;;;0.40;;
39776;SDS011;25453;48.162;14.510;2023-09-19T13:58:04;1.15;;;0.50;;
39776;SDS011;25453;48.162;14.510;2023-09-19T14:00:33;0.68;;;0.40;;
39776;SDS011;25453;48.162;14.510;2023-09-19T14:03:03;0.50;;;0.30;;
39776;SDS011;25453;48.162;14.510;2023-09-19T14:05:31;1.05;;;0.40;;
39776;SDS011;25453;48.162;14.510;2023-09-19T14:08:01;0.57;;;0.40;;
39776;SDS011;25453;48.162;14.510;2023-09-19T14:10:30;1.00;;;0.50;;
39776;SDS011;25453;48.162;14.510;2023-09-19T14:12:58;0.47;;;0.40;;
39776;SDS011;25453;48.162;14.510;2023-09-19T14:15:26;0.75;;;0.55;;
39776;SDS011;25453;48.162;14.510;2023-09-19T14:17:57;0.50;;;0.30;;
39776;SDS011;25453;48.162;14.510;2023-09-19T14:20:26;1.30;;;0.40;;
39776;SDS011;25453;48.162;14.510;2023-09-19T14:22:54;0.47;;;0.30;;
39776;SDS011;25453;48.162;14.510;2023-09-19T14:25:21;0.40;;;0.20;;
39776;SDS011;25453;48.162;14.510;2023-09-19T14:27:50;0.60;;;0.35;;
39776;SDS011;25453;48.162;14.510;2023-09-19T14:30:17;0.77;;;0.40;;
39776;SDS011;25453;48.162;14.510;2023-09-19T14:32:44;0.35;;;0.28;;
39776;SDS011;25453;48.162;14.510;2023-09-19T14:35:12;0.40;;;0.40;;
39776;SDS011;25453;48.162;14.510;2023-09-19T14:37:40;1.83;;;0.28;;
39776;SDS011;25453;48.162;14.510;2023-09-19T14:40:08;0.73;;;0.40;;
39776;SDS011;25453;48.162;14.510;2023-09-19T14:42:38;0.40;;;0.28;;
39776;SDS011;25453;48.162;14.510;2023-09-19T14:45:06;0.95;;;0.32;;
39776;SDS011;25453;48.162;14.510;2023-09-19T14:47:33;0.45;;;0.35;;
39776;SDS011;25453;48.162;14.510;2023-09-19T14:50:01;0.47;;;0.30;;
39776;SDS011;25453;48.162;14.510;2023-09-19T14:52:33;0.68;;;0.30;;
39776;SDS011;25453;48.162;14.510;2023-09-19T14:55:02;0.73;;;0.35;;
39776;SDS011;25453;48.162;14.510;2023-09-19T14:57:31;0.20;;;0.20;;
39776;SDS011;25453;48.162;14.510;2023-09-19T14:59:58;0.80;;;0.30;;
39776;SDS011;25453;48.162;14.510;2023-09-19T15:02:26;0.20;;;0.20;;
39776;SDS011;25453;48.162;14.510;2023-09-19T15:04:54;0.25;;;0.20;;
39776;SDS011;25453;48.162;14.510;2023-09-19T15:07:22;0.28;;;0.25;;
39776;SDS011;25453;48.162;14.510;2023-09-19T15:09:49;0.57;;;0.20;;
39776;SDS011;25453;48.162;14.510;2023-09-19T15:12:16;0.73;;;0.30;;
39776;SDS011;25453;48.162;14.510;2023-09-19T15:14:43;0.70;;;0.30;;
39776;SDS011;25453;48.162;14.510;2023-09-19T15:17:11;0.30;;;0.20;;
39776;SDS011;25453;48.162;14.510;2023-09-19T15:19:40;0.60;;;0.20;;
39776;SDS011;25453;48.162;14.510;2023-09-19T15:22:07;0.30;;;0.20;;
39776;SDS011;25453;48.162;14.510;2023-09-19T15:24:35;0.20;;;0.20;;
39776;SDS011;25453;48.162;14.510;2023-09-19T15:27:02;0.30;;;0.20;;
39776;SDS011;25453;48.162;14.510;2023-09-19T15:29:29;0.20;;;0.20;;
39776;SDS011;25453;48.162;14.510;2023-09-19T15:31:57;1.20;;;0.30;;
39776;SDS011;25453;48.162;14.510;2023-09-19T15:34:28;0.40;;;0.30;;
39776;SDS011;25453;48.162;14.510;2023-09-19T15:36:57;0.95;;;0.30;;
39776;SDS011;25453;48.162;14.510;2023-09-19T15:39:24;0.50;;;0.20;;
39776;SDS011;25453;48.162;14.510;2023-09-19T15:41:51;0.32;;;0.20;;
39776;SDS011;25453;48.162;14.510;2023-09-19T15:44:20;0.15;;;0.10;;
39776;SDS011;25453;48.162;14.510;2023-09-19T15:46:47;0.40;;;0.20;;